createdAt,value
2023-02-25T00:01:13.584Z,99.90
2023-02-25T00:03:41.048Z,99.90
2023-02-25T00:06:09.984Z,99.90
2023-02-25T00:08:36.712Z,99.90
2023-02-25T00:11:05.602Z,99.90
2023-02-25T00:13:33.843Z,99.90
2023-02-25T00:16:04.016Z,99.90
2023-02-25T00:18:33.787Z,99.90
2023-02-25T00:21:03.688Z,99.90
2023-02-25T00:23:30.332Z,99.90
2023-02-25T00:26:02.175Z,99.90
2023-02-25T00:28:29.259Z,99.90
2023-02-25T00:30:56.118Z,99.90
2023-02-25T00:33:22.839Z,99.90
2023-02-25T00:35:52.447Z,99.90
2023-02-25T00:38:19.086Z,99.90
2023-02-25T00:40:45.679Z,99.90
2023-02-25T00:43:12.290Z,99.90
2023-02-25T00:45:42.522Z,99.90
2023-02-25T00:48:09.292Z,99.90
2023-02-25T00:50:36.867Z,99.90
2023-02-25T00:53:03.532Z,99.90
2023-02-25T00:55:33.186Z,99.90
2023-02-25T00:58:01.278Z,99.90
2023-02-25T01:00:28.560Z,99.90
2023-02-25T01:02:57.015Z,99.90
2023-02-25T01:05:24.113Z,99.90
2023-02-25T01:07:51.085Z,99.90
2023-02-25T01:10:18.131Z,99.90
2023-02-25T01:12:44.806Z,99.90
2023-02-25T01:15:12.144Z,99.90
2023-02-25T01:17:38.860Z,99.90
2023-02-25T01:20:11.276Z,99.90
2023-02-25T01:22:41.511Z,99.90
2023-02-25T01:25:12.083Z,99.90
2023-02-25T01:27:38.858Z,99.90
2023-02-25T01:30:07.129Z,99.90
2023-02-25T01:32:34.242Z,99.90
2023-02-25T01:35:01.132Z,99.90
2023-02-25T01:37:27.984Z,99.90
2023-02-25T01:39:54.590Z,99.90
2023-02-25T01:42:21.259Z,99.90
2023-02-25T01:45:22.221Z,99.90
2023-02-25T01:47:59.825Z,99.90
2023-02-25T01:50:34.433Z,99.90
2023-02-25T01:53:03.654Z,99.90
2023-02-25T01:55:30.950Z,99.90
2023-02-25T01:57:59.935Z,99.90
2023-02-25T02:00:28.572Z,99.90
2023-02-25T02:02:56.746Z,99.90
2023-02-25T02:05:27.880Z,99.90
2023-02-25T02:07:54.538Z,99.90
2023-02-25T02:10:21.224Z,99.90
2023-02-25T02:12:48.215Z,99.90
2023-02-25T02:15:15.940Z,99.90
2023-02-25T02:18:12.629Z,99.90
2023-02-25T02:20:55.289Z,99.90
2023-02-25T02:23:30.748Z,99.90
2023-02-25T02:26:30.850Z,99.90
2023-02-25T02:29:07.563Z,99.90
2023-02-25T02:31:55.547Z,99.90
2023-02-25T02:34:39.088Z,99.90
2023-02-25T02:37:05.703Z,99.90
2023-02-25T02:40:15.258Z,99.90
2023-02-25T02:43:01.516Z,99.90
2023-02-25T02:45:47.387Z,99.90
2023-02-25T02:48:36.650Z,99.90
2023-02-25T02:51:08.232Z,99.90
2023-02-25T02:53:41.954Z,99.90
2023-02-25T02:56:11.789Z,99.90
2023-02-25T02:58:44.264Z,99.90
2023-02-25T03:01:27.127Z,99.90
2023-02-25T03:04:01.241Z,99.90
2023-02-25T03:06:34.037Z,99.90
2023-02-25T03:09:10.359Z,99.90
2023-02-25T03:11:36.985Z,99.90
2023-02-25T03:14:03.630Z,99.90
2023-02-25T03:16:53.407Z,99.90
2023-02-25T03:19:31.589Z,99.90
2023-02-25T03:22:07.643Z,99.90
2023-02-25T03:24:48.815Z,99.90
2023-02-25T03:27:45.905Z,99.90
2023-02-25T03:30:22.717Z,99.90
2023-02-25T03:32:58.634Z,99.90
2023-02-25T03:35:27.037Z,99.90
2023-02-25T03:38:01.522Z,99.90
2023-02-25T03:40:29.631Z,99.90
2023-02-25T03:43:08.402Z,99.90
2023-02-25T03:45:37.668Z,99.90
2023-02-25T03:48:08.258Z,99.90
2023-02-25T03:50:59.800Z,99.90
2023-02-25T03:53:31.973Z,99.90
2023-02-25T03:56:05.347Z,99.90
2023-02-25T03:58:34.280Z,99.90
2023-02-25T04:01:03.999Z,99.90
2023-02-25T04:03:30.739Z,99.90
2023-02-25T04:05:57.382Z,99.90
2023-02-25T04:08:24.309Z,99.90
2023-02-25T04:10:51.974Z,99.90
2023-02-25T04:13:20.810Z,99.90
2023-02-25T04:15:48.810Z,99.90
2023-02-25T04:18:16.000Z,99.90
2023-02-25T04:20:42.904Z,99.90
2023-02-25T04:23:16.590Z,99.90
2023-02-25T04:25:43.727Z,99.90
2023-02-25T04:28:10.905Z,99.90
2023-02-25T04:30:38.366Z,99.90
2023-02-25T04:33:05.416Z,99.90
2023-02-25T04:35:32.131Z,99.90
2023-02-25T04:37:58.748Z,99.90
2023-02-25T04:40:25.607Z,99.90
2023-02-25T04:42:52.340Z,99.90
2023-02-25T04:45:26.883Z,99.90
2023-02-25T04:47:57.738Z,99.90
2023-02-25T04:50:25.231Z,99.90
2023-02-25T04:52:52.039Z,99.90
2023-02-25T04:55:18.731Z,99.90
2023-02-25T04:57:45.415Z,99.90
2023-02-25T05:00:21.048Z,99.90
2023-02-25T05:02:48.353Z,99.90
2023-02-25T05:05:16.231Z,99.90
2023-02-25T05:07:43.247Z,99.90
2023-02-25T05:10:11.839Z,99.90
2023-02-25T05:12:38.773Z,99.90
2023-02-25T05:15:08.363Z,99.90
2023-02-25T05:17:35.774Z,99.90
2023-02-25T05:20:02.923Z,99.90
2023-02-25T05:22:29.600Z,99.90
2023-02-25T05:24:56.285Z,99.90
2023-02-25T05:27:22.936Z,99.90
2023-02-25T05:29:51.573Z,99.90
2023-02-25T05:32:18.359Z,99.90
2023-02-25T05:34:45.121Z,99.90
2023-02-25T05:37:11.803Z,99.90
2023-02-25T05:39:38.444Z,99.90
2023-02-25T05:42:05.127Z,99.90
2023-02-25T05:44:31.874Z,99.90
2023-02-25T05:46:58.613Z,99.90
2023-02-25T05:49:25.325Z,99.90
2023-02-25T05:51:52.032Z,99.90
2023-02-25T05:54:18.670Z,99.90
2023-02-25T05:56:45.347Z,99.90
2023-02-25T05:59:12.485Z,99.90
2023-02-25T06:01:39.183Z,99.90
2023-02-25T06:04:05.810Z,99.90
2023-02-25T06:06:32.955Z,99.90
2023-02-25T06:08:59.676Z,99.90
2023-02-25T06:11:29.821Z,99.90
2023-02-25T06:13:57.750Z,99.90
2023-02-25T06:16:26.414Z,99.90
2023-02-25T06:18:53.412Z,99.90
2023-02-25T06:21:20.559Z,99.90
2023-02-25T06:23:50.421Z,99.90
2023-02-25T06:26:17.319Z,99.90
2023-02-25T06:28:43.966Z,99.90
2023-02-25T06:31:12.533Z,99.90
2023-02-25T06:33:39.368Z,99.90
2023-02-25T06:36:07.238Z,99.90
2023-02-25T06:38:35.196Z,99.90
2023-02-25T06:41:07.212Z,99.90
2023-02-25T06:43:34.025Z,99.90
2023-02-25T06:46:05.220Z,99.90
2023-02-25T06:48:32.029Z,99.90
2023-02-25T06:50:58.678Z,99.90
2023-02-25T06:53:25.483Z,99.90
2023-02-25T06:55:52.175Z,99.90
2023-02-25T06:58:18.793Z,99.90
2023-02-25T07:00:45.495Z,99.90
2023-02-25T07:03:12.808Z,99.90
2023-02-25T07:05:39.675Z,99.90
2023-02-25T07:08:06.435Z,99.90
2023-02-25T07:10:34.761Z,99.90
2023-02-25T07:13:01.492Z,99.90
2023-02-25T07:15:28.200Z,99.90
2023-02-25T07:17:54.992Z,99.90
2023-02-25T07:20:21.743Z,99.90
2023-02-25T07:22:49.021Z,99.90
2023-02-25T07:25:15.879Z,99.90
2023-02-25T07:27:44.806Z,99.90
2023-02-25T07:30:13.085Z,99.90
2023-02-25T07:32:43.468Z,99.90
2023-02-25T07:35:10.734Z,99.90
2023-02-25T07:37:38.039Z,99.90
2023-02-25T07:40:14.183Z,99.90
2023-02-25T07:42:41.744Z,99.90
2023-02-25T07:45:10.029Z,99.90
2023-02-25T07:47:37.653Z,99.90
2023-02-25T07:50:06.616Z,99.90
2023-02-25T07:52:33.450Z,99.90
2023-02-25T07:55:00.148Z,99.90
2023-02-25T07:57:28.245Z,99.90
2023-02-25T07:59:54.920Z,99.90
2023-02-25T08:02:21.891Z,99.90
2023-02-25T08:04:48.639Z,99.90
2023-02-25T08:07:15.333Z,99.90
2023-02-25T08:09:42.180Z,99.90
2023-02-25T08:12:09.732Z,99.90
2023-02-25T08:14:38.056Z,99.90
2023-02-25T08:17:04.852Z,99.90
2023-02-25T08:19:34.175Z,99.90
2023-02-25T08:22:00.972Z,99.90
2023-02-25T08:24:27.737Z,99.90
2023-02-25T08:26:54.751Z,99.90
2023-02-25T08:29:21.687Z,99.90
2023-02-25T08:31:51.864Z,99.90
2023-02-25T08:34:19.035Z,99.90
2023-02-25T08:36:45.812Z,99.90
2023-02-25T08:39:12.602Z,99.90
2023-02-25T08:41:39.433Z,99.90
2023-02-25T08:44:06.204Z,99.90
2023-02-25T08:46:33.268Z,99.90
2023-02-25T08:48:59.996Z,99.90
2023-02-25T08:51:34.569Z,99.90
2023-02-25T08:54:11.918Z,99.90
2023-02-25T08:56:44.542Z,99.90
2023-02-25T08:59:14.278Z,99.90
2023-02-25T09:01:52.059Z,99.90
2023-02-25T09:04:24.401Z,99.90
2023-02-25T09:06:52.726Z,99.90
2023-02-25T09:09:20.686Z,99.90
2023-02-25T09:11:48.697Z,99.90
2023-02-25T09:14:15.519Z,99.90
2023-02-25T09:16:42.271Z,99.90
2023-02-25T09:19:10.715Z,99.90
2023-02-25T09:21:37.388Z,99.90
2023-02-25T09:24:04.245Z,99.90
2023-02-25T09:26:30.850Z,99.00
2023-02-25T09:29:01.242Z,96.30
2023-02-25T09:31:28.412Z,99.50
2023-02-25T09:33:55.172Z,99.10
2023-02-25T09:36:22.797Z,99.90
2023-02-25T09:38:50.521Z,99.90
2023-02-25T09:41:28.876Z,99.90
2023-02-25T09:44:14.881Z,99.90
2023-02-25T09:46:47.135Z,99.90
2023-02-25T09:49:40.925Z,99.90
2023-02-25T09:52:18.691Z,99.90
2023-02-25T09:55:00.418Z,99.90
2023-02-25T09:57:29.487Z,99.90
2023-02-25T09:59:56.210Z,99.90
2023-02-25T10:02:27.939Z,99.90
2023-02-25T10:05:15.201Z,99.00
2023-02-25T10:07:58.049Z,98.50
2023-02-25T10:10:49.419Z,96.20
2023-02-25T10:13:31.176Z,94.50
2023-02-25T10:16:38.100Z,93.70
2023-02-25T10:19:21.987Z,90.40
2023-02-25T10:22:21.851Z,87.70
2023-02-25T10:25:32.440Z,87.60
2023-02-25T10:28:10.642Z,90.10
2023-02-25T10:31:03.998Z,89.40
2023-02-25T10:33:36.863Z,85.60
2023-02-25T10:36:15.596Z,91.00
2023-02-25T10:38:47.649Z,91.10
2023-02-25T10:41:14.975Z,92.10
2023-02-25T10:43:42.279Z,91.20
2023-02-25T10:46:34.574Z,91.20
2023-02-25T10:49:16.125Z,88.50
2023-02-25T10:52:02.967Z,90.20
2023-02-25T10:54:34.864Z,88.40
2023-02-25T10:57:12.550Z,91.10
2023-02-25T10:59:41.152Z,89.60
2023-02-25T11:02:25.689Z,90.20
2023-02-25T11:04:54.715Z,90.00
2023-02-25T11:07:41.385Z,91.30
2023-02-25T11:10:16.230Z,91.10
2023-02-25T11:12:49.507Z,91.80
2023-02-25T11:15:46.177Z,89.70
2023-02-25T11:18:27.125Z,90.40
2023-02-25T11:21:02.808Z,87.60
2023-02-25T11:23:34.311Z,83.90
2023-02-25T11:26:01.530Z,87.20
2023-02-25T11:28:46.155Z,89.00
2023-02-25T11:31:23.168Z,88.90
2023-02-25T11:33:54.055Z,87.60
2023-02-25T11:36:23.695Z,88.60
2023-02-25T11:39:26.341Z,83.20
2023-02-25T11:41:56.667Z,80.80
2023-02-25T11:44:30.717Z,82.50
2023-02-25T11:47:23.304Z,82.20
2023-02-25T11:50:00.426Z,84.30
2023-02-25T11:52:35.929Z,85.50
2023-02-25T11:55:12.646Z,86.80
2023-02-25T11:58:14.154Z,86.80
2023-02-25T12:00:52.080Z,85.20
2023-02-25T12:03:45.015Z,85.50
2023-02-25T12:06:35.202Z,88.40
2023-02-25T12:09:20.529Z,90.30
2023-02-25T12:12:11.270Z,90.40
2023-02-25T12:15:16.108Z,87.20
2023-02-25T12:17:58.595Z,87.50
2023-02-25T12:20:52.178Z,88.00
2023-02-25T12:23:42.903Z,89.90
2023-02-25T12:26:30.576Z,87.40
2023-02-25T12:29:09.248Z,86.10
2023-02-25T12:31:57.986Z,87.10
2023-02-25T12:34:49.462Z,87.10
2023-02-25T12:37:29.241Z,90.00
2023-02-25T12:40:21.079Z,87.90
2023-02-25T12:43:06.690Z,86.80
2023-02-25T12:45:52.048Z,87.40
2023-02-25T12:48:40.063Z,85.10
2023-02-25T12:51:32.212Z,86.70
2023-02-25T12:54:11.484Z,83.70
2023-02-25T12:56:54.295Z,80.80
2023-02-25T12:59:30.435Z,82.50
2023-02-25T13:02:26.101Z,81.80
2023-02-25T13:05:24.101Z,81.80
2023-02-25T13:08:24.589Z,84.90
2023-02-25T13:11:10.597Z,85.30
2023-02-25T13:13:40.316Z,84.40
2023-02-25T13:16:22.223Z,81.80
2023-02-25T13:19:26.459Z,85.00
2023-02-25T13:21:56.132Z,83.90
2023-02-25T13:24:33.987Z,84.80
2023-02-25T13:27:23.014Z,84.60
2023-02-25T13:30:00.156Z,83.70
2023-02-25T13:32:46.244Z,84.70
2023-02-25T13:35:21.744Z,84.00
2023-02-25T13:38:07.616Z,81.90
2023-02-25T13:40:52.471Z,83.00
2023-02-25T13:43:49.523Z,84.00
2023-02-25T13:46:28.309Z,82.90
2023-02-25T13:49:31.153Z,82.70
2023-02-25T13:52:40.548Z,82.50
2023-02-25T13:55:37.135Z,82.90
2023-02-25T13:58:06.735Z,82.30
2023-02-25T14:00:34.539Z,83.50
2023-02-25T14:03:12.901Z,84.70
2023-02-25T14:05:58.649Z,82.80
2023-02-25T14:08:53.039Z,84.10
2023-02-25T14:11:29.398Z,82.30
2023-02-25T14:14:22.137Z,85.10
2023-02-25T14:17:06.364Z,85.60
2023-02-25T14:19:50.724Z,84.90
2023-02-25T14:22:27.322Z,85.80
2023-02-25T14:25:08.004Z,86.10
2023-02-25T14:28:13.464Z,85.40
2023-02-25T14:31:20.467Z,86.90
2023-02-25T14:33:59.378Z,88.50
2023-02-25T14:36:31.907Z,86.10
2023-02-25T14:39:27.573Z,88.90
2023-02-25T14:42:12.072Z,89.90
2023-02-25T14:45:17.488Z,89.70
2023-02-25T14:47:56.076Z,90.00
2023-02-25T14:50:49.626Z,90.70
2023-02-25T14:53:24.972Z,91.20
2023-02-25T14:56:18.109Z,91.20
2023-02-25T14:59:21.624Z,91.60
2023-02-25T15:02:03.568Z,91.20
2023-02-25T15:05:08.452Z,91.20
2023-02-25T15:08:17.463Z,90.80
2023-02-25T15:11:17.020Z,91.10
2023-02-25T15:14:07.236Z,90.40
2023-02-25T15:16:57.625Z,90.90
2023-02-25T15:19:56.576Z,91.10
2023-02-25T15:22:29.309Z,91.70
2023-02-25T15:25:20.366Z,91.20
2023-02-25T15:27:56.799Z,90.60
2023-02-25T15:30:25.724Z,90.70
2023-02-25T15:32:52.365Z,91.40
2023-02-25T15:35:41.847Z,91.50
2023-02-25T15:38:13.436Z,91.80
2023-02-25T15:40:46.613Z,91.90
2023-02-25T15:43:13.232Z,91.80
2023-02-25T15:45:42.127Z,92.30
2023-02-25T15:48:11.479Z,92.30
2023-02-25T15:50:46.217Z,92.70
2023-02-25T15:53:23.234Z,93.10
2023-02-25T15:56:13.719Z,93.30
2023-02-25T15:58:54.928Z,94.10
2023-02-25T16:01:21.703Z,94.40
2023-02-25T16:03:48.840Z,94.30
2023-02-25T16:06:20.029Z,94.10
2023-02-25T16:09:05.289Z,94.30
2023-02-25T16:11:50.458Z,94.70
2023-02-25T16:14:32.235Z,93.90
2023-02-25T16:17:05.679Z,94.10
2023-02-25T16:19:39.227Z,94.50
2023-02-25T16:22:09.231Z,95.10
2023-02-25T16:24:36.752Z,95.00
2023-02-25T16:27:46.872Z,95.50
2023-02-25T16:30:30.069Z,95.70
2023-02-25T16:33:18.736Z,95.90
2023-02-25T16:36:02.693Z,96.20
2023-02-25T16:38:38.211Z,96.30
2023-02-25T16:41:05.420Z,96.70
2023-02-25T16:43:37.027Z,96.60
2023-02-25T16:46:07.134Z,96.50
2023-02-25T16:48:36.556Z,96.70
2023-02-25T16:51:34.635Z,96.60
2023-02-25T16:54:15.657Z,96.40
2023-02-25T16:56:46.342Z,96.90
2023-02-25T16:59:12.932Z,97.00
2023-02-25T17:01:45.916Z,97.30
2023-02-25T17:04:15.402Z,97.30
2023-02-25T17:06:42.723Z,97.90
2023-02-25T17:09:26.363Z,98.30
2023-02-25T17:11:55.684Z,98.90
2023-02-25T17:14:23.603Z,99.20
2023-02-25T17:16:51.028Z,99.40
2023-02-25T17:19:22.442Z,99.90
2023-02-25T17:21:56.128Z,99.90
2023-02-25T17:24:28.544Z,99.90
2023-02-25T17:26:55.630Z,99.90
2023-02-25T17:29:31.581Z,99.90
2023-02-25T17:31:58.398Z,99.90
2023-02-25T17:34:31.490Z,99.90
2023-02-25T17:37:03.205Z,99.90
2023-02-25T17:39:30.353Z,99.90
2023-02-25T17:41:57.322Z,99.90
2023-02-25T17:44:39.095Z,99.90
2023-02-25T17:47:09.674Z,99.90
2023-02-25T17:49:37.407Z,99.90
2023-02-25T17:52:07.954Z,99.90
2023-02-25T17:54:37.228Z,99.90
2023-02-25T17:57:14.624Z,99.90
2023-02-25T17:59:43.335Z,99.90
2023-02-25T18:02:38.882Z,99.90
2023-02-25T18:05:18.379Z,99.90
2023-02-25T18:07:59.187Z,99.90
2023-02-25T18:10:25.770Z,99.90
2023-02-25T18:12:54.933Z,99.90
2023-02-25T18:15:24.846Z,99.90
2023-02-25T18:18:02.962Z,99.90
2023-02-25T18:20:35.473Z,99.90
2023-02-25T18:23:04.417Z,99.90
2023-02-25T18:25:33.167Z,99.90
2023-02-25T18:28:00.111Z,99.90
2023-02-25T18:30:29.136Z,99.90
2023-02-25T18:32:57.394Z,99.90
2023-02-25T18:35:25.449Z,99.90
2023-02-25T18:37:54.462Z,99.90
2023-02-25T18:40:31.049Z,99.90
2023-02-25T18:42:59.123Z,99.90
2023-02-25T18:45:27.630Z,99.90
2023-02-25T18:47:56.881Z,99.90
2023-02-25T18:50:24.686Z,99.90
2023-02-25T18:52:51.472Z,99.90
2023-02-25T18:55:23.215Z,99.90
2023-02-25T18:57:50.219Z,99.90
2023-02-25T19:00:19.109Z,99.90
2023-02-25T19:02:54.230Z,99.90
2023-02-25T19:05:22.729Z,99.90
2023-02-25T19:07:49.991Z,99.90
2023-02-25T19:10:23.543Z,99.90
2023-02-25T19:12:53.579Z,99.90
2023-02-25T19:15:21.306Z,99.90
2023-02-25T19:17:49.171Z,99.90
2023-02-25T19:20:18.779Z,99.90
2023-02-25T19:22:48.048Z,99.90
2023-02-25T19:25:35.012Z,99.90
2023-02-25T19:28:02.522Z,99.90
2023-02-25T19:30:33.968Z,99.90
2023-02-25T19:33:04.556Z,99.90
2023-02-25T19:35:33.662Z,99.90
2023-02-25T19:38:00.331Z,99.90
2023-02-25T19:40:27.094Z,99.90
2023-02-25T19:42:53.794Z,99.90
2023-02-25T19:45:22.013Z,99.90
2023-02-25T19:47:49.931Z,99.90
2023-02-25T19:50:18.994Z,99.90
2023-02-25T19:52:46.105Z,99.90
2023-02-25T19:55:14.519Z,99.90
2023-02-25T19:57:42.090Z,99.90
2023-02-25T20:00:13.777Z,99.90
2023-02-25T20:02:40.831Z,99.90
2023-02-25T20:05:08.304Z,99.90
2023-02-25T20:07:35.607Z,99.90
2023-02-25T20:10:02.473Z,99.90
2023-02-25T20:12:29.151Z,99.90
2023-02-25T20:14:57.051Z,99.90
2023-02-25T20:17:25.167Z,99.90
2023-02-25T20:19:52.713Z,99.90
2023-02-25T20:22:23.559Z,99.90
2023-02-25T20:24:50.860Z,99.90
2023-02-25T20:27:17.656Z,99.90
2023-02-25T20:29:44.436Z,99.90
2023-02-25T20:32:11.322Z,99.90
2023-02-25T20:34:38.213Z,99.90
2023-02-25T20:37:24.659Z,99.90
2023-02-25T20:39:55.910Z,99.90
2023-02-25T20:42:29.910Z,99.90
2023-02-25T20:44:58.179Z,99.90
2023-02-25T20:47:28.071Z,99.90
2023-02-25T20:49:55.856Z,99.90
2023-02-25T20:52:22.988Z,99.90
2023-02-25T20:54:50.039Z,99.90
2023-02-25T20:57:20.290Z,99.90
2023-02-25T20:59:48.350Z,99.90
2023-02-25T21:02:16.126Z,99.90
2023-02-25T21:04:44.139Z,99.90
2023-02-25T21:07:11.129Z,99.90
2023-02-25T21:09:37.854Z,99.90
2023-02-25T21:12:05.070Z,99.90
2023-02-25T21:14:31.714Z,99.90
2023-02-25T21:16:58.683Z,99.90
2023-02-25T21:19:27.994Z,99.90
2023-02-25T21:21:55.698Z,99.90
2023-02-25T21:24:22.684Z,99.90
2023-02-25T21:26:49.841Z,99.90
2023-02-25T21:29:16.568Z,99.90
2023-02-25T21:31:43.495Z,99.90
2023-02-25T21:34:12.731Z,99.90
2023-02-25T21:36:40.512Z,99.90
2023-02-25T21:39:09.101Z,99.90
2023-02-25T21:41:36.972Z,99.90
2023-02-25T21:44:03.818Z,99.90
2023-02-25T21:46:30.482Z,99.90
2023-02-25T21:48:57.172Z,99.90
2023-02-25T21:51:25.863Z,99.90
2023-02-25T21:54:00.470Z,99.90
2023-02-25T21:56:28.626Z,99.90
2023-02-25T21:58:59.241Z,99.90
2023-02-25T22:01:29.060Z,99.90
2023-02-25T22:03:56.142Z,99.90
2023-02-25T22:06:24.535Z,99.90
2023-02-25T22:08:52.214Z,99.90
2023-02-25T22:11:21.941Z,99.90
2023-02-25T22:13:50.571Z,99.90
2023-02-25T22:16:17.986Z,99.90
2023-02-25T22:18:45.054Z,99.90
2023-02-25T22:21:12.164Z,99.90
2023-02-25T22:23:40.378Z,99.90
2023-02-25T22:26:09.393Z,99.90
2023-02-25T22:28:36.629Z,99.90
2023-02-25T22:31:05.135Z,99.90
2023-02-25T22:33:32.864Z,99.90
2023-02-25T22:36:01.930Z,99.90
2023-02-25T22:38:33.859Z,99.90
2023-02-25T22:41:03.722Z,99.90
2023-02-25T22:43:31.643Z,99.90
2023-02-25T22:46:26.400Z,99.90
2023-02-25T22:48:54.022Z,99.90
2023-02-25T22:51:23.448Z,99.90
2023-02-25T22:53:50.574Z,99.90
2023-02-25T22:56:17.551Z,99.90
2023-02-25T22:58:44.374Z,99.90
2023-02-25T23:01:13.405Z,99.90
2023-02-25T23:03:40.776Z,99.90
2023-02-25T23:06:07.668Z,99.90
2023-02-25T23:08:36.523Z,99.90
2023-02-25T23:11:24.659Z,99.90
2023-02-25T23:13:53.643Z,99.90
2023-02-25T23:16:29.091Z,99.90
2023-02-25T23:18:58.164Z,99.90
2023-02-25T23:21:28.525Z,99.90
2023-02-25T23:23:56.986Z,99.90
2023-02-25T23:26:28.039Z,99.90
2023-02-25T23:28:56.490Z,99.90
2023-02-25T23:31:26.049Z,99.90
2023-02-25T23:34:23.434Z,99.90
2023-02-25T23:36:50.443Z,99.90
2023-02-25T23:39:17.349Z,99.90
2023-02-25T23:41:44.277Z,99.90
2023-02-25T23:44:13.182Z,99.90
2023-02-25T23:46:42.969Z,99.90
2023-02-25T23:49:11.126Z,99.90
2023-02-25T23:51:40.921Z,99.90
2023-02-25T23:54:07.620Z,99.90
2023-02-25T23:56:35.344Z,99.90
2023-02-25T23:59:02.667Z,99.90
